Terminal Aerodrome Forecast
Issued by NWS Chicago, IL

Home | Current Version | Previous Version | Graphics & Text | Print | Product List | Glossary On
Versions: 1 2 3 4 5 6 7 8 9 10 11 12 13 14 15 16 17 18 19 20 21 22 23
876
FTUS43 KLOT 200528
TAFRFD
TAF
KRFD 200528Z 2006/2106 23010KT P6SM OVC250
     FM201500 23007KT P6SM SCT020 BKN250
     FM202300 21005KT P6SM BKN030
     FM210500 VRB03KT 3SM BR OVC009=

USA.gov is the U.S. government's official web portal to all federal, state and local government web resources and services.